createdAt,value
2018-12-31T00:00:26.245Z,9.95
2018-12-31T00:02:53.029Z,11.18
2018-12-31T00:05:19.845Z,8.20
2018-12-31T00:07:46.624Z,7.42
2018-12-31T00:10:13.440Z,9.50
2018-12-31T00:12:40.220Z,9.45
2018-12-31T00:15:07.093Z,8.05
2018-12-31T00:17:33.873Z,9.50
2018-12-31T00:20:00.659Z,13.10
2018-12-31T00:22:27.477Z,9.10
2018-12-31T00:24:54.262Z,12.40
2018-12-31T00:27:21.077Z,8.80
2018-12-31T00:29:47.898Z,9.05
2018-12-31T00:32:14.676Z,7.42
2018-12-31T00:34:41.498Z,8.48
2018-12-31T00:37:08.313Z,10.93
2018-12-31T00:39:35.135Z,9.30
2018-12-31T00:42:01.960Z,11.15
2018-12-31T00:44:28.750Z,12.85
2018-12-31T00:46:55.581Z,8.15
2018-12-31T00:49:22.365Z,15.88
2018-12-31T00:51:49.182Z,9.38
2018-12-31T00:54:15.998Z,11.97
2018-12-31T00:56:42.786Z,11.33
2018-12-31T00:59:09.642Z,18.02
2018-12-31T01:01:36.505Z,8.73
2018-12-31T01:04:03.321Z,9.10
2018-12-31T01:06:30.108Z,8.73
2018-12-31T01:08:56.928Z,12.05
2018-12-31T01:11:23.715Z,9.80
2018-12-31T01:13:50.529Z,9.08
2018-12-31T01:16:17.309Z,10.10
2018-12-31T01:18:44.126Z,12.75
2018-12-31T01:21:10.915Z,13.20
2018-12-31T01:23:37.751Z,12.82
2018-12-31T01:26:04.528Z,12.65
2018-12-31T01:28:31.345Z,13.00
2018-12-31T01:30:58.173Z,8.50
2018-12-31T01:33:24.955Z,9.68
2018-12-31T01:35:51.785Z,10.68
2018-12-31T01:38:18.569Z,9.23
2018-12-31T01:40:45.350Z,12.10
2018-12-31T01:43:12.569Z,10.82
2018-12-31T01:45:39.393Z,12.37
2018-12-31T01:48:06.171Z,10.20
2018-12-31T01:50:32.988Z,10.78
2018-12-31T01:52:59.773Z,12.25
2018-12-31T01:55:28.491Z,10.98
2018-12-31T01:57:55.278Z,8.35
2018-12-31T02:00:22.128Z,10.95
2018-12-31T02:02:48.913Z,12.75
2018-12-31T02:05:15.738Z,12.23
2018-12-31T02:07:42.522Z,12.20
2018-12-31T02:10:10.245Z,16.02
2018-12-31T02:12:37.021Z,13.43
2018-12-31T02:15:05.045Z,9.85
2018-12-31T02:17:31.824Z,10.38
2018-12-31T02:20:00.121Z,9.98
2018-12-31T02:22:26.925Z,10.03
2018-12-31T02:24:53.741Z,9.35
2018-12-31T02:27:20.520Z,11.00
2018-12-31T02:29:47.340Z,10.55
2018-12-31T02:32:14.504Z,15.98
2018-12-31T02:34:41.350Z,11.53
2018-12-31T02:37:08.162Z,12.37
2018-12-31T02:39:34.943Z,15.40
2018-12-31T02:42:01.760Z,10.88
2018-12-31T02:44:28.546Z,11.73
2018-12-31T02:46:55.365Z,9.53
2018-12-31T02:49:22.193Z,8.58
2018-12-31T02:51:48.976Z,8.70
2018-12-31T02:54:15.796Z,10.53
2018-12-31T02:56:42.576Z,10.13
2018-12-31T02:59:09.486Z,8.73
2018-12-31T03:01:36.320Z,11.70
2018-12-31T03:04:03.103Z,13.13
2018-12-31T03:06:29.917Z,8.58
2018-12-31T03:08:56.692Z,10.13
2018-12-31T03:11:23.515Z,7.25
2018-12-31T03:13:50.299Z,9.73
2018-12-31T03:16:17.113Z,7.45
2018-12-31T03:18:43.933Z,8.78
2018-12-31T03:21:10.711Z,7.75
2018-12-31T03:23:37.532Z,9.43
2018-12-31T03:26:04.316Z,7.50
2018-12-31T03:28:31.138Z,13.53
2018-12-31T03:30:57.972Z,6.90
2018-12-31T03:33:24.738Z,10.95
2018-12-31T03:35:51.565Z,7.20
2018-12-31T03:38:18.350Z,7.45
2018-12-31T03:40:45.165Z,7.58
2018-12-31T03:43:11.939Z,8.83
2018-12-31T03:45:38.763Z,8.48
2018-12-31T03:48:05.573Z,6.15
2018-12-31T03:50:32.358Z,7.00
2018-12-31T03:52:59.185Z,8.05
2018-12-31T03:55:25.965Z,8.00
2018-12-31T03:57:52.801Z,10.28
2018-12-31T04:00:19.560Z,7.65
2018-12-31T04:02:47.034Z,7.20
2018-12-31T04:05:13.903Z,7.62
2018-12-31T04:07:40.710Z,7.47
2018-12-31T04:10:07.489Z,8.40
2018-12-31T04:12:34.309Z,8.38
2018-12-31T04:15:01.084Z,6.50
2018-12-31T04:17:27.896Z,8.00
2018-12-31T04:19:54.681Z,5.92
2018-12-31T04:22:21.493Z,7.83
2018-12-31T04:24:48.313Z,8.55
2018-12-31T04:27:15.093Z,7.53
2018-12-31T04:29:41.913Z,6.92
2018-12-31T04:32:08.734Z,6.87
2018-12-31T04:34:35.525Z,8.28
2018-12-31T04:37:02.312Z,6.50
2018-12-31T04:39:29.329Z,6.25
2018-12-31T04:41:56.114Z,7.80
2018-12-31T04:44:22.937Z,7.15
2018-12-31T04:46:49.722Z,7.22
2018-12-31T04:49:16.540Z,6.92
2018-12-31T04:51:43.322Z,6.50
2018-12-31T04:54:10.140Z,5.97
2018-12-31T04:56:36.921Z,8.05
2018-12-31T04:59:03.740Z,5.50
2018-12-31T05:01:30.550Z,5.08
2018-12-31T05:03:57.374Z,4.67
2018-12-31T05:06:24.190Z,5.15
2018-12-31T05:08:50.975Z,5.05
2018-12-31T05:11:17.798Z,4.85
2018-12-31T05:13:44.577Z,4.53
2018-12-31T05:16:11.392Z,4.72
2018-12-31T05:18:38.173Z,4.78
2018-12-31T05:21:04.980Z,5.35
2018-12-31T05:23:31.801Z,4.37
2018-12-31T05:25:58.581Z,4.15
2018-12-31T05:28:25.405Z,4.00
2018-12-31T05:30:52.189Z,4.22
2018-12-31T05:33:19.008Z,4.28
2018-12-31T05:35:45.793Z,5.80
2018-12-31T05:38:12.615Z,5.28
2018-12-31T05:40:39.398Z,3.40
2018-12-31T05:43:06.173Z,3.30
2018-12-31T05:45:32.989Z,3.42
2018-12-31T05:47:59.810Z,3.60
2018-12-31T05:50:26.600Z,4.08
2018-12-31T05:52:53.413Z,4.30
2018-12-31T05:55:20.207Z,3.42
2018-12-31T05:57:47.030Z,3.33
2018-12-31T06:00:13.809Z,3.90
2018-12-31T06:02:40.628Z,3.40
2018-12-31T06:05:07.457Z,3.50
2018-12-31T06:07:34.268Z,3.52
2018-12-31T06:10:01.060Z,3.70
2018-12-31T06:12:28.476Z,2.70
2018-12-31T06:14:55.268Z,2.85
2018-12-31T06:17:22.087Z,4.55
2018-12-31T06:19:48.868Z,3.00
2018-12-31T06:22:15.697Z,2.98
2018-12-31T06:24:42.586Z,3.37
2018-12-31T06:27:09.412Z,3.00
2018-12-31T06:29:36.228Z,3.75
2018-12-31T06:32:03.008Z,2.98
2018-12-31T06:34:29.834Z,3.10
2018-12-31T06:36:56.621Z,3.58
2018-12-31T06:39:23.447Z,3.40
2018-12-31T06:41:50.221Z,2.30
2018-12-31T06:44:17.041Z,2.90
2018-12-31T06:46:43.825Z,2.85
2018-12-31T06:49:10.644Z,2.85
2018-12-31T06:51:37.424Z,2.42
2018-12-31T06:54:04.291Z,2.60
2018-12-31T06:56:31.070Z,2.33
2018-12-31T06:58:57.949Z,3.40
2018-12-31T07:01:24.771Z,2.62
2018-12-31T07:03:51.662Z,2.20
2018-12-31T07:06:18.441Z,2.90
2018-12-31T07:08:45.261Z,2.75
2018-12-31T07:11:12.040Z,3.12
2018-12-31T07:13:38.877Z,3.27
2018-12-31T07:16:05.665Z,2.92
2018-12-31T07:18:32.481Z,2.83
2018-12-31T07:20:59.266Z,3.52
2018-12-31T07:23:26.081Z,2.70
2018-12-31T07:25:52.869Z,2.55
2018-12-31T07:28:19.688Z,2.75
2018-12-31T07:30:46.468Z,3.00
2018-12-31T07:33:13.290Z,2.30
2018-12-31T07:35:40.074Z,2.75
2018-12-31T07:38:06.896Z,1.80
2018-12-31T07:40:33.679Z,2.25
2018-12-31T07:43:00.496Z,2.45
2018-12-31T07:45:27.322Z,2.58
2018-12-31T07:47:54.201Z,1.60
2018-12-31T07:50:21.022Z,1.87
2018-12-31T07:52:47.802Z,2.08
2018-12-31T07:55:14.623Z,2.37
2018-12-31T07:57:42.213Z,2.15
2018-12-31T08:00:09.036Z,2.50
2018-12-31T08:02:35.816Z,2.62
2018-12-31T08:05:03.173Z,2.17
2018-12-31T08:07:29.962Z,2.20
2018-12-31T08:09:56.792Z,2.20
2018-12-31T08:12:23.579Z,2.42
2018-12-31T08:14:50.398Z,2.10
2018-12-31T08:17:17.211Z,1.77
2018-12-31T08:19:43.969Z,2.25
2018-12-31T08:22:10.798Z,2.15
2018-12-31T08:24:37.577Z,2.05
2018-12-31T08:27:04.401Z,1.80
2018-12-31T08:29:31.228Z,1.82
2018-12-31T08:31:58.009Z,1.30
2018-12-31T08:34:24.845Z,2.10
2018-12-31T08:36:51.749Z,1.90
2018-12-31T08:39:18.604Z,2.15
2018-12-31T08:41:45.442Z,3.52
2018-12-31T08:44:12.243Z,1.80
2018-12-31T08:46:39.066Z,2.72
2018-12-31T08:49:05.852Z,1.80
2018-12-31T08:51:32.693Z,1.90
2018-12-31T08:53:59.543Z,2.33
2018-12-31T08:56:26.397Z,2.75
2018-12-31T08:58:53.246Z,3.02
2018-12-31T09:01:20.093Z,2.15
2018-12-31T09:03:46.892Z,1.72
2018-12-31T09:06:13.761Z,1.75
2018-12-31T09:08:40.563Z,1.45
2018-12-31T09:11:07.493Z,2.17
2018-12-31T09:13:34.286Z,1.17
2018-12-31T09:16:01.122Z,1.90
2018-12-31T09:18:27.934Z,1.47
2018-12-31T09:20:54.792Z,1.60
2018-12-31T09:23:21.561Z,1.42
2018-12-31T09:25:48.398Z,1.45
2018-12-31T09:28:15.209Z,1.00
2018-12-31T09:30:42.038Z,1.45
2018-12-31T09:33:08.835Z,2.00
2018-12-31T09:35:35.668Z,1.50
2018-12-31T09:38:02.474Z,1.62
2018-12-31T09:40:29.275Z,1.70
2018-12-31T09:42:56.120Z,1.47
2018-12-31T09:45:22.946Z,1.67
2018-12-31T09:47:49.757Z,1.62
2018-12-31T09:50:16.588Z,1.60
2018-12-31T09:52:43.375Z,1.30
2018-12-31T09:55:10.226Z,2.10
2018-12-31T09:57:37.018Z,2.25
2018-12-31T10:00:05.263Z,2.20
2018-12-31T10:02:32.058Z,1.27
2018-12-31T10:04:58.891Z,1.60
2018-12-31T10:07:25.723Z,1.37
2018-12-31T10:09:52.560Z,1.10
2018-12-31T10:12:19.403Z,2.00
2018-12-31T10:14:46.210Z,1.77
2018-12-31T10:17:13.041Z,1.95
2018-12-31T10:19:39.838Z,1.42
2018-12-31T10:22:06.868Z,9.80
2018-12-31T10:24:33.660Z,1.72
2018-12-31T10:27:00.493Z,1.82
2018-12-31T10:29:27.336Z,1.42
2018-12-31T10:31:54.154Z,1.70
2018-12-31T10:34:20.999Z,1.40
2018-12-31T10:36:47.841Z,1.40
2018-12-31T10:39:14.642Z,1.37
2018-12-31T10:41:41.494Z,1.52
2018-12-31T10:44:08.354Z,1.85
2018-12-31T10:46:35.162Z,3.65
2018-12-31T10:49:01.995Z,2.25
2018-12-31T10:51:28.825Z,2.45
2018-12-31T10:53:55.625Z,3.90
2018-12-31T10:56:22.465Z,8.80
2018-12-31T10:58:49.305Z,4.80
2018-12-31T11:01:16.108Z,8.98
2018-12-31T11:03:42.970Z,11.35
2018-12-31T11:06:09.801Z,8.05
2018-12-31T11:08:36.662Z,8.13
2018-12-31T11:11:03.606Z,4.67
2018-12-31T11:13:30.473Z,2.83
2018-12-31T11:15:57.266Z,3.08
2018-12-31T11:18:24.101Z,2.12
2018-12-31T11:20:50.934Z,1.98
2018-12-31T11:23:17.735Z,2.00
2018-12-31T11:25:45.503Z,1.50
2018-12-31T11:28:12.329Z,1.50
2018-12-31T11:30:39.119Z,1.80
2018-12-31T11:33:05.953Z,1.82
2018-12-31T11:35:32.759Z,2.87
2018-12-31T11:37:59.589Z,1.75
2018-12-31T11:40:26.405Z,2.87
2018-12-31T11:42:53.238Z,1.80
2018-12-31T11:45:20.024Z,1.65
2018-12-31T11:47:46.865Z,3.12
2018-12-31T11:50:13.664Z,1.50
2018-12-31T11:52:40.502Z,1.90
2018-12-31T11:55:07.309Z,1.92
2018-12-31T11:57:34.142Z,2.40
2018-12-31T12:00:00.945Z,2.35
2018-12-31T12:02:27.830Z,2.17
2018-12-31T12:04:54.684Z,2.40
2018-12-31T12:07:21.542Z,2.02
2018-12-31T12:09:48.375Z,2.85
2018-12-31T12:12:15.166Z,2.72
2018-12-31T12:14:42.003Z,2.25
2018-12-31T12:17:09.011Z,2.47
2018-12-31T12:19:36.351Z,3.60
2018-12-31T12:22:03.178Z,3.37
2018-12-31T12:24:30.028Z,3.58
2018-12-31T12:26:56.885Z,2.45
2018-12-31T12:29:23.704Z,2.83
2018-12-31T12:31:50.528Z,2.00
2018-12-31T12:34:17.362Z,2.60
2018-12-31T12:36:44.167Z,2.62
2018-12-31T12:39:11.006Z,2.65
2018-12-31T12:41:38.093Z,1.85
2018-12-31T12:44:04.918Z,1.80
2018-12-31T12:46:31.776Z,2.67
2018-12-31T12:48:58.649Z,2.00
2018-12-31T12:51:25.450Z,2.92
2018-12-31T12:53:52.285Z,2.45
2018-12-31T12:56:19.391Z,2.45
2018-12-31T12:58:46.231Z,2.33
2018-12-31T13:01:13.022Z,2.62
2018-12-31T13:03:39.869Z,2.50
2018-12-31T13:06:06.731Z,2.40
2018-12-31T13:08:33.556Z,3.20
2018-12-31T13:11:00.657Z,5.58
2018-12-31T13:13:27.507Z,9.30
2018-12-31T13:15:54.296Z,5.85
2018-12-31T13:18:21.151Z,3.10
2018-12-31T13:20:47.960Z,3.25
2018-12-31T13:23:14.806Z,6.22
2018-12-31T13:25:41.869Z,3.80
2018-12-31T13:28:08.725Z,3.65
2018-12-31T13:30:35.930Z,5.83
2018-12-31T13:33:02.813Z,4.60
2018-12-31T13:35:29.591Z,3.02
2018-12-31T13:37:56.377Z,3.37
2018-12-31T13:40:23.242Z,3.75
2018-12-31T13:42:50.060Z,3.60
2018-12-31T13:45:16.888Z,2.92
2018-12-31T13:47:43.677Z,3.05
2018-12-31T13:50:10.510Z,3.33
2018-12-31T13:52:37.304Z,2.98
2018-12-31T13:55:04.545Z,3.83
2018-12-31T13:57:31.326Z,6.35
2018-12-31T13:59:58.214Z,4.22
2018-12-31T14:02:25.005Z,4.17
2018-12-31T14:04:51.850Z,3.75
2018-12-31T14:07:18.682Z,3.95
2018-12-31T14:09:45.521Z,3.15
2018-12-31T14:12:12.330Z,3.35
2018-12-31T14:14:39.280Z,3.37
2018-12-31T14:17:06.182Z,3.85
2018-12-31T14:19:33.013Z,3.30
2018-12-31T14:22:00.231Z,2.98
2018-12-31T14:24:27.064Z,2.65
2018-12-31T14:27:00.477Z,2.90
2018-12-31T14:29:22.874Z,3.40
2018-12-31T14:31:49.715Z,3.20
2018-12-31T14:34:36.244Z,5.15
2018-12-31T14:37:03.069Z,3.50
2018-12-31T14:39:29.862Z,4.10
2018-12-31T14:41:56.685Z,3.47
2018-12-31T14:44:23.465Z,3.15
2018-12-31T14:46:50.689Z,5.28
2018-12-31T14:49:17.521Z,3.80
2018-12-31T14:51:44.308Z,4.70
2018-12-31T14:54:11.138Z,4.72
2018-12-31T14:56:38.153Z,4.10
2018-12-31T14:59:04.960Z,4.10
2018-12-31T15:01:32.082Z,5.10
2018-12-31T15:03:58.903Z,4.55
2018-12-31T15:06:25.771Z,5.30
2018-12-31T15:08:52.584Z,8.40
2018-12-31T15:11:19.420Z,4.70
2018-12-31T15:13:46.210Z,4.25
2018-12-31T15:16:13.156Z,3.35
2018-12-31T15:18:39.961Z,4.58
2018-12-31T15:21:06.738Z,4.47
2018-12-31T15:23:33.553Z,4.60
2018-12-31T15:26:00.377Z,5.10
2018-12-31T15:28:27.190Z,4.60
2018-12-31T15:30:54.285Z,5.30
2018-12-31T15:33:21.093Z,5.45
2018-12-31T15:35:47.899Z,6.58
2018-12-31T15:38:14.685Z,7.12
2018-12-31T15:40:41.505Z,5.87
2018-12-31T15:43:08.292Z,5.90
2018-12-31T15:45:35.419Z,5.10
2018-12-31T15:48:02.196Z,5.60
2018-12-31T15:50:29.018Z,6.90
2018-12-31T15:52:55.800Z,7.10
2018-12-31T15:55:23.117Z,7.35
2018-12-31T15:57:49.942Z,6.80
2018-12-31T16:00:17.012Z,4.85
2018-12-31T16:02:43.837Z,6.35
2018-12-31T16:05:10.626Z,9.20
2018-12-31T16:07:45.378Z,13.03
2018-12-31T16:10:06.281Z,16.73
2018-12-31T16:12:33.144Z,13.32
2018-12-31T16:15:00.621Z,7.10
2018-12-31T16:17:27.466Z,12.88
2018-12-31T16:19:54.237Z,12.23
2018-12-31T16:22:21.059Z,6.37
2018-12-31T16:24:47.882Z,9.63
2018-12-31T16:27:14.666Z,7.15
2018-12-31T16:29:41.793Z,12.05
2018-12-31T16:32:08.621Z,9.15
2018-12-31T16:34:35.468Z,10.28
2018-12-31T16:37:02.322Z,9.70
2018-12-31T16:39:29.304Z,7.70
2018-12-31T16:41:56.122Z,20.72
2018-12-31T16:44:23.180Z,21.60
2018-12-31T16:46:50.053Z,11.78
2018-12-31T16:49:16.877Z,13.68
2018-12-31T16:51:43.656Z,14.35
2018-12-31T16:54:10.472Z,12.68
2018-12-31T16:56:37.263Z,17.07
2018-12-31T16:59:04.403Z,9.85
2018-12-31T17:01:31.262Z,16.15
2018-12-31T17:03:58.082Z,14.40
2018-12-31T17:06:24.864Z,12.80
2018-12-31T17:08:51.691Z,13.93
2018-12-31T17:11:18.474Z,10.13
2018-12-31T17:13:45.549Z,11.48
2018-12-31T17:16:12.349Z,10.20
2018-12-31T17:18:39.160Z,11.73
2018-12-31T17:21:05.945Z,13.45
2018-12-31T17:23:32.766Z,11.90
2018-12-31T17:25:59.545Z,12.13
2018-12-31T17:28:26.853Z,11.12
2018-12-31T17:30:53.661Z,11.55
2018-12-31T17:33:20.481Z,13.78
2018-12-31T17:35:47.301Z,13.00
2018-12-31T17:38:14.173Z,11.88
2018-12-31T17:40:41.253Z,16.73
2018-12-31T17:43:08.381Z,12.78
2018-12-31T17:45:35.169Z,16.17
2018-12-31T17:48:01.960Z,18.05
2018-12-31T17:50:28.781Z,17.15
2018-12-31T17:52:55.569Z,13.43
2018-12-31T17:55:22.391Z,14.78
2018-12-31T17:57:49.185Z,13.53
2018-12-31T18:00:16.005Z,14.38
2018-12-31T18:02:42.785Z,20.62
2018-12-31T18:05:09.601Z,39.50
2018-12-31T18:07:36.389Z,36.08
2018-12-31T18:10:04.813Z,55.78
2018-12-31T18:12:31.597Z,80.10
2018-12-31T18:14:58.452Z,47.65
2018-12-31T18:17:25.273Z,23.40
2018-12-31T18:19:52.061Z,18.27
2018-12-31T18:22:18.878Z,20.57
2018-12-31T18:24:45.679Z,16.65
2018-12-31T18:27:12.796Z,18.52
2018-12-31T18:29:39.581Z,20.95
2018-12-31T18:32:06.406Z,16.70
2018-12-31T18:34:33.184Z,17.02
2018-12-31T18:37:00.011Z,21.70
2018-12-31T18:39:26.793Z,17.02
2018-12-31T18:41:53.609Z,16.25
2018-12-31T18:44:20.393Z,18.67
2018-12-31T18:46:47.217Z,19.35
2018-12-31T18:49:13.995Z,20.52
2018-12-31T18:51:40.813Z,23.07
2018-12-31T18:54:07.600Z,21.10
2018-12-31T18:56:34.422Z,19.82
2018-12-31T18:59:01.245Z,23.20
2018-12-31T19:01:28.642Z,21.15
2018-12-31T19:03:55.465Z,19.45
2018-12-31T19:06:22.258Z,30.30
2018-12-31T19:08:49.037Z,24.90
2018-12-31T19:11:15.865Z,26.80
2018-12-31T19:13:42.763Z,20.92
2018-12-31T19:16:09.548Z,21.37
2018-12-31T19:18:36.365Z,20.15
2018-12-31T19:21:03.149Z,26.65
2018-12-31T19:23:29.968Z,22.27
2018-12-31T19:25:56.752Z,21.80
2018-12-31T19:28:23.787Z,19.55
2018-12-31T19:30:50.569Z,23.83
2018-12-31T19:33:17.397Z,20.70
2018-12-31T19:35:44.180Z,23.90
2018-12-31T19:38:11.010Z,21.82
2018-12-31T19:40:37.784Z,26.35
2018-12-31T19:43:04.906Z,23.95
2018-12-31T19:45:31.695Z,29.70
2018-12-31T19:47:58.524Z,24.50
2018-12-31T19:50:25.304Z,22.70
2018-12-31T19:52:52.120Z,24.57
2018-12-31T19:55:18.945Z,21.97
2018-12-31T19:57:46.038Z,27.40
2018-12-31T20:00:12.895Z,31.17
2018-12-31T20:02:39.650Z,32.00
2018-12-31T20:05:06.674Z,37.35
2018-12-31T20:07:33.453Z,28.77
2018-12-31T20:10:00.280Z,36.63
2018-12-31T20:12:27.360Z,31.60
2018-12-31T20:14:54.222Z,33.15
2018-12-31T20:17:21.030Z,33.02
2018-12-31T20:19:47.853Z,36.60
2018-12-31T20:22:14.659Z,24.27
2018-12-31T20:24:41.484Z,27.65
2018-12-31T20:27:08.265Z,27.50
2018-12-31T20:29:35.048Z,26.85
2018-12-31T20:32:01.881Z,23.22
2018-12-31T20:34:28.665Z,24.15
2018-12-31T20:36:55.494Z,31.00
2018-12-31T20:39:22.280Z,98.65
2018-12-31T20:41:49.106Z,122.42
2018-12-31T20:44:15.930Z,123.92
2018-12-31T20:46:42.761Z,86.17
2018-12-31T20:49:09.590Z,66.82
2018-12-31T20:51:36.378Z,57.33
2018-12-31T20:54:03.213Z,60.35
2018-12-31T20:56:30.001Z,57.43
2018-12-31T20:58:56.825Z,57.83
2018-12-31T21:01:24.022Z,61.92
2018-12-31T21:03:50.940Z,67.37
2018-12-31T21:06:17.772Z,93.82
2018-12-31T21:08:44.578Z,123.75
2018-12-31T21:11:11.426Z,89.42
2018-12-31T21:13:38.209Z,48.75
2018-12-31T21:16:05.582Z,69.12
2018-12-31T21:18:32.449Z,34.85
2018-12-31T21:20:59.298Z,27.02
2018-12-31T21:23:26.060Z,33.50
2018-12-31T21:25:52.888Z,25.02
2018-12-31T21:28:19.682Z,31.10
2018-12-31T21:30:46.506Z,31.85
2018-12-31T21:33:14.826Z,32.75
2018-12-31T21:35:41.625Z,32.23
2018-12-31T21:38:08.448Z,31.25
2018-12-31T21:40:35.273Z,36.05
2018-12-31T21:43:02.069Z,40.90
2018-12-31T21:45:28.906Z,54.13
2018-12-31T21:47:55.954Z,62.33
2018-12-31T21:50:22.749Z,55.23
2018-12-31T21:52:49.590Z,54.20
2018-12-31T21:55:16.428Z,48.55
2018-12-31T21:57:43.234Z,43.00
2018-12-31T22:00:10.057Z,35.40
2018-12-31T22:02:37.149Z,33.85
2018-12-31T22:05:04.297Z,33.10
2018-12-31T22:07:31.090Z,32.08
2018-12-31T22:09:57.921Z,32.60
2018-12-31T22:12:24.707Z,35.60
2018-12-31T22:14:51.525Z,31.93
2018-12-31T22:17:18.494Z,34.23
2018-12-31T22:19:45.289Z,31.87
2018-12-31T22:22:12.112Z,37.98
2018-12-31T22:24:38.905Z,29.90
2018-12-31T22:27:05.735Z,31.20
2018-12-31T22:29:32.559Z,32.63
2018-12-31T22:31:59.365Z,29.82
2018-12-31T22:34:26.154Z,32.17
2018-12-31T22:36:52.973Z,31.95
2018-12-31T22:39:19.769Z,27.10
2018-12-31T22:41:46.617Z,29.18
2018-12-31T22:44:13.401Z,28.98
2018-12-31T22:46:40.237Z,37.90
2018-12-31T22:49:07.065Z,25.27
2018-12-31T22:51:33.881Z,155.32
2018-12-31T22:54:00.708Z,89.80
2018-12-31T22:56:27.514Z,32.53
2018-12-31T22:58:54.336Z,48.28
2018-12-31T23:01:21.122Z,242.37
2018-12-31T23:03:47.929Z,392.13
2018-12-31T23:06:14.781Z,954.95
2018-12-31T23:08:41.621Z,874.60
2018-12-31T23:11:08.401Z,583.30
2018-12-31T23:13:35.250Z,396.40
2018-12-31T23:16:02.040Z,395.80
2018-12-31T23:18:28.899Z,493.07
2018-12-31T23:20:55.691Z,161.10
2018-12-31T23:23:22.534Z,156.87
2018-12-31T23:25:49.405Z,176.70
2018-12-31T23:28:16.249Z,186.50
2018-12-31T23:30:43.041Z,171.02
2018-12-31T23:33:10.181Z,103.05
2018-12-31T23:35:36.969Z,75.97
2018-12-31T23:38:03.814Z,74.58
2018-12-31T23:40:30.617Z,78.90
2018-12-31T23:42:57.456Z,90.05
2018-12-31T23:45:24.281Z,119.53
2018-12-31T23:47:51.373Z,113.95
2018-12-31T23:50:18.193Z,146.20
2018-12-31T23:52:44.977Z,157.47
2018-12-31T23:55:11.801Z,180.45
2018-12-31T23:57:38.601Z,208.07
